sensor_id;sensor_type;location;lat;lon;timestamp;pressure;altitude;pressure_sealevel;temperature;humidity
36664;BME280;53333;51.976;20.144;2023-03-14T00:02:33;98499.84;;;10.18;54.97
36664;BME280;53333;51.976;20.144;2023-03-14T00:05:07;98514.38;;;10.14;54.81
36664;BME280;53333;51.976;20.144;2023-03-14T00:07:40;98508.41;;;10.10;55.00
36664;BME280;53333;51.976;20.144;2023-03-14T00:10:14;98495.19;;;10.09;55.02
36664;BME280;53333;51.976;20.144;2023-03-14T00:12:47;98500.75;;;10.06;54.94
36664;BME280;53333;51.976;20.144;2023-03-14T00:15:20;98499.03;;;10.05;54.98
36664;BME280;53333;51.976;20.144;2023-03-14T00:17:55;98488.34;;;10.05;55.04
36664;BME280;53333;51.976;20.144;2023-03-14T00:20:28;98488.47;;;10.03;55.02
36664;BME280;53333;51.976;20.144;2023-03-14T00:23:01;98493.81;;;10.03;55.01
36664;BME280;53333;51.976;20.144;2023-03-14T00:25:34;98490.41;;;10.01;55.06
36664;BME280;53333;51.976;20.144;2023-03-14T00:28:07;98501.91;;;10.02;54.91
36664;BME280;53333;51.976;20.144;2023-03-14T00:30:40;98499.34;;;10.00;54.90
36664;BME280;53333;51.976;20.144;2023-03-14T00:33:15;98501.06;;;10.01;54.85
36664;BME280;53333;51.976;20.144;2023-03-14T00:35:53;98491.47;;;9.98;54.87
36664;BME280;53333;51.976;20.144;2023-03-14T00:38:27;98495.22;;;9.96;54.85
36664;BME280;53333;51.976;20.144;2023-03-14T00:41:02;98483.91;;;10.05;54.63
36664;BME280;53333;51.976;20.144;2023-03-14T00:43:35;98482.13;;;9.93;54.71
36664;BME280;53333;51.976;20.144;2023-03-14T00:46:08;98472.50;;;9.90;54.89
36664;BME280;53333;51.976;20.144;2023-03-14T00:48:43;98468.38;;;9.86;54.80
36664;BME280;53333;51.976;20.144;2023-03-14T00:51:17;98454.38;;;9.82;54.91
36664;BME280;53333;51.976;20.144;2023-03-14T00:53:50;98450.88;;;9.82;54.99
36664;BME280;53333;51.976;20.144;2023-03-14T00:56:23;98454.59;;;9.79;55.06
36664;BME280;53333;51.976;20.144;2023-03-14T00:58:56;98460.06;;;9.78;55.08
36664;BME280;53333;51.976;20.144;2023-03-14T01:01:29;98454.84;;;9.76;55.02
36664;BME280;53333;51.976;20.144;2023-03-14T01:04:03;98458.47;;;9.75;55.06
36664;BME280;53333;51.976;20.144;2023-03-14T01:06:36;98449.75;;;9.73;54.94
36664;BME280;53333;51.976;20.144;2023-03-14T01:09:10;98448.75;;;9.74;54.98
36664;BME280;53333;51.976;20.144;2023-03-14T01:11:43;98453.25;;;9.74;54.96
36664;BME280;53333;51.976;20.144;2023-03-14T01:14:18;98452.41;;;9.73;54.90
36664;BME280;53333;51.976;20.144;2023-03-14T01:16:51;98444.41;;;9.73;54.92
36664;BME280;53333;51.976;20.144;2023-03-14T01:19:25;98433.88;;;9.72;54.95
36664;BME280;53333;51.976;20.144;2023-03-14T01:21:58;98439.31;;;9.70;54.87
36664;BME280;53333;51.976;20.144;2023-03-14T01:24:31;98446.44;;;9.70;54.88
36664;BME280;53333;51.976;20.144;2023-03-14T01:27:05;98429.59;;;9.69;54.82
36664;BME280;53333;51.976;20.144;2023-03-14T01:29:38;98443.03;;;9.68;54.72
36664;BME280;53333;51.976;20.144;2023-03-14T01:32:11;98431.63;;;9.66;54.89
36664;BME280;53333;51.976;20.144;2023-03-14T01:34:46;98432.81;;;9.61;54.93
36664;BME280;53333;51.976;20.144;2023-03-14T01:37:19;98426.84;;;9.58;54.84
36664;BME280;53333;51.976;20.144;2023-03-14T01:40:20;98431.44;;;9.56;54.96
36664;BME280;53333;51.976;20.144;2023-03-14T01:42:54;98436.88;;;9.54;54.96
36664;BME280;53333;51.976;20.144;2023-03-14T01:48:15;98423.13;;;9.48;54.94
36664;BME280;53333;51.976;20.144;2023-03-14T01:50:50;98433.06;;;9.45;55.04
36664;BME280;53333;51.976;20.144;2023-03-14T01:53:23;98427.84;;;9.44;54.86
36664;BME280;53333;51.976;20.144;2023-03-14T01:55:57;98419.94;;;9.42;54.96
36664;BME280;53333;51.976;20.144;2023-03-14T01:58:31;98419.22;;;9.40;54.93
36664;BME280;53333;51.976;20.144;2023-03-14T02:01:06;98405.16;;;9.38;55.05
36664;BME280;53333;51.976;20.144;2023-03-14T02:03:46;98411.44;;;9.37;55.01
36664;BME280;53333;51.976;20.144;2023-03-14T02:06:24;98400.03;;;9.35;55.14
36664;BME280;53333;51.976;20.144;2023-03-14T02:09:02;98393.94;;;9.33;55.09
36664;BME280;53333;51.976;20.144;2023-03-14T02:11:38;98370.94;;;9.32;55.11
36664;BME280;53333;51.976;20.144;2023-03-14T02:14:32;98380.84;;;9.30;55.05
36664;BME280;53333;51.976;20.144;2023-03-14T02:17:26;98377.34;;;9.30;54.96
36664;BME280;53333;51.976;20.144;2023-03-14T02:20:30;98387.16;;;9.29;55.11
36664;BME280;53333;51.976;20.144;2023-03-14T02:23:07;98382.88;;;9.26;55.07
36664;BME280;53333;51.976;20.144;2023-03-14T02:25:45;98378.53;;;9.25;55.12
36664;BME280;53333;51.976;20.144;2023-03-14T02:28:22;98375.97;;;9.24;54.99
36664;BME280;53333;51.976;20.144;2023-03-14T02:30:59;98391.19;;;9.22;55.12
36664;BME280;53333;51.976;20.144;2023-03-14T02:33:37;98384.19;;;9.21;55.18
36664;BME280;53333;51.976;20.144;2023-03-14T02:36:13;98386.09;;;9.19;55.23
36664;BME280;53333;51.976;20.144;2023-03-14T02:38:50;98378.97;;;9.19;55.04
36664;BME280;53333;51.976;20.144;2023-03-14T02:41:29;98377.16;;;9.20;55.17
36664;BME280;53333;51.976;20.144;2023-03-14T02:44:08;98370.88;;;9.21;55.05
36664;BME280;53333;51.976;20.144;2023-03-14T02:46:41;98375.00;;;9.25;55.08
36664;BME280;53333;51.976;20.144;2023-03-14T02:49:14;98372.34;;;9.25;55.08
36664;BME280;53333;51.976;20.144;2023-03-14T02:51:49;98369.47;;;9.28;55.00
36664;BME280;53333;51.976;20.144;2023-03-14T02:54:22;98367.66;;;9.29;54.97
36664;BME280;53333;51.976;20.144;2023-03-14T02:56:56;98362.19;;;9.30;54.98
36664;BME280;53333;51.976;20.144;2023-03-14T02:59:30;98339.09;;;9.31;54.94
36664;BME280;53333;51.976;20.144;2023-03-14T03:02:10;98342.69;;;9.30;55.00
36664;BME280;53333;51.976;20.144;2023-03-14T03:04:43;98350.91;;;9.26;55.11
36664;BME280;53333;51.976;20.144;2023-03-14T03:07:16;98336.97;;;9.23;55.02
36664;BME280;53333;51.976;20.144;2023-03-14T03:09:50;98336.34;;;9.19;55.08
36664;BME280;53333;51.976;20.144;2023-03-14T03:12:23;98337.50;;;9.15;55.15
36664;BME280;53333;51.976;20.144;2023-03-14T03:14:58;98348.59;;;9.09;55.21
36664;BME280;53333;51.976;20.144;2023-03-14T03:17:31;98350.66;;;9.05;55.29
36664;BME280;53333;51.976;20.144;2023-03-14T03:20:04;98342.03;;;9.02;55.36
36664;BME280;53333;51.976;20.144;2023-03-14T03:22:40;98340.75;;;8.95;55.46
36664;BME280;53333;51.976;20.144;2023-03-14T03:25:13;98325.97;;;8.90;55.54
36664;BME280;53333;51.976;20.144;2023-03-14T03:27:47;98335.22;;;8.85;55.61
36664;BME280;53333;51.976;20.144;2023-03-14T03:30:23;98347.06;;;8.81;55.72
36664;BME280;53333;51.976;20.144;2023-03-14T03:32:56;98350.78;;;8.78;55.79
36664;BME280;53333;51.976;20.144;2023-03-14T03:35:29;98344.84;;;8.75;55.47
36664;BME280;53333;51.976;20.144;2023-03-14T03:38:02;98346.72;;;8.72;55.81
36664;BME280;53333;51.976;20.144;2023-03-14T03:40:35;98355.91;;;8.68;55.86
36664;BME280;53333;51.976;20.144;2023-03-14T03:43:09;98345.47;;;8.65;55.91
36664;BME280;53333;51.976;20.144;2023-03-14T03:45:47;98344.94;;;8.60;55.93
36664;BME280;53333;51.976;20.144;2023-03-14T03:48:20;98330.13;;;8.56;55.97
36664;BME280;53333;51.976;20.144;2023-03-14T03:50:53;98324.19;;;8.52;56.17
36664;BME280;53333;51.976;20.144;2023-03-14T03:53:27;98308.41;;;8.49;56.12
36664;BME280;53333;51.976;20.144;2023-03-14T03:56:08;98306.69;;;8.48;56.23
36664;BME280;53333;51.976;20.144;2023-03-14T03:58:43;98323.53;;;8.49;56.04
36664;BME280;53333;51.976;20.144;2023-03-14T04:01:17;98324.28;;;8.51;56.12
36664;BME280;53333;51.976;20.144;2023-03-14T04:03:54;98333.94;;;8.52;55.93
36664;BME280;53333;51.976;20.144;2023-03-14T04:06:27;98303.63;;;8.54;56.04
36664;BME280;53333;51.976;20.144;2023-03-14T04:09:03;98304.47;;;8.55;55.82
36664;BME280;53333;51.976;20.144;2023-03-14T04:11:42;98299.91;;;8.57;55.83
36664;BME280;53333;51.976;20.144;2023-03-14T04:14:24;98297.03;;;8.60;55.66
36664;BME280;53333;51.976;20.144;2023-03-14T04:17:07;98281.69;;;8.64;55.71
36664;BME280;53333;51.976;20.144;2023-03-14T04:19:40;98291.16;;;8.68;55.46
36664;BME280;53333;51.976;20.144;2023-03-14T04:22:14;98286.25;;;8.75;55.33
36664;BME280;53333;51.976;20.144;2023-03-14T04:24:51;98261.88;;;8.81;55.16
36664;BME280;53333;51.976;20.144;2023-03-14T04:27:25;98263.34;;;8.85;55.06
36664;BME280;53333;51.976;20.144;2023-03-14T04:30:00;98273.66;;;8.89;54.87
36664;BME280;53333;51.976;20.144;2023-03-14T04:32:51;98280.38;;;8.95;54.75
36664;BME280;53333;51.976;20.144;2023-03-14T04:35:30;98287.28;;;8.98;54.67
36664;BME280;53333;51.976;20.144;2023-03-14T04:38:07;98292.38;;;9.01;54.53
36664;BME280;53333;51.976;20.144;2023-03-14T04:40:40;98255.09;;;9.01;54.52
36664;BME280;53333;51.976;20.144;2023-03-14T04:43:13;98256.25;;;9.09;54.36
36664;BME280;53333;51.976;20.144;2023-03-14T04:45:53;98268.53;;;8.99;54.36
36664;BME280;53333;51.976;20.144;2023-03-14T04:48:28;98247.53;;;8.95;54.51
36664;BME280;53333;51.976;20.144;2023-03-14T04:51:03;98253.97;;;8.92;54.49
36664;BME280;53333;51.976;20.144;2023-03-14T04:53:38;98257.78;;;8.88;54.48
36664;BME280;53333;51.976;20.144;2023-03-14T04:56:14;98258.00;;;8.85;54.46
36664;BME280;53333;51.976;20.144;2023-03-14T04:58:48;98254.72;;;8.81;54.45
36664;BME280;53333;51.976;20.144;2023-03-14T05:01:22;98247.78;;;8.79;54.45
36664;BME280;53333;51.976;20.144;2023-03-14T05:04:15;98249.00;;;8.75;54.59
36664;BME280;53333;51.976;20.144;2023-03-14T05:07:14;98241.22;;;8.71;54.59
36664;BME280;53333;51.976;20.144;2023-03-14T05:10:02;98223.66;;;8.69;54.65
36664;BME280;53333;51.976;20.144;2023-03-14T05:12:48;98233.56;;;8.67;54.66
36664;BME280;53333;51.976;20.144;2023-03-14T05:15:52;98240.81;;;8.65;54.68
36664;BME280;53333;51.976;20.144;2023-03-14T05:18:44;98218.53;;;8.66;54.53
36664;BME280;53333;51.976;20.144;2023-03-14T05:21:37;98194.38;;;8.69;54.47
36664;BME280;53333;51.976;20.144;2023-03-14T05:24:19;98193.94;;;8.75;54.48
36664;BME280;53333;51.976;20.144;2023-03-14T05:27:07;98198.19;;;8.78;54.26
36664;BME280;53333;51.976;20.144;2023-03-14T05:30:05;98203.81;;;8.86;54.24
36664;BME280;53333;51.976;20.144;2023-03-14T05:33:10;98200.38;;;8.97;53.89
36664;BME280;53333;51.976;20.144;2023-03-14T05:35:46;98178.47;;;9.04;53.90
36664;BME280;53333;51.976;20.144;2023-03-14T05:38:39;98172.72;;;9.11;53.66
36664;BME280;53333;51.976;20.144;2023-03-14T05:41:32;98172.25;;;9.17;53.42
36664;BME280;53333;51.976;20.144;2023-03-14T05:44:33;98177.13;;;9.23;53.31
36664;BME280;53333;51.976;20.144;2023-03-14T05:47:24;98170.63;;;9.27;53.26
36664;BME280;53333;51.976;20.144;2023-03-14T05:50:10;98153.44;;;9.31;53.19
36664;BME280;53333;51.976;20.144;2023-03-14T05:53:19;98166.06;;;9.40;52.95
36664;BME280;53333;51.976;20.144;2023-03-14T05:56:11;98166.31;;;9.49;52.83
36664;BME280;53333;51.976;20.144;2023-03-14T05:59:03;98170.97;;;9.58;52.60
36664;BME280;53333;51.976;20.144;2023-03-14T06:02:02;98162.50;;;9.64;52.61
36664;BME280;53333;51.976;20.144;2023-03-14T06:04:46;98156.94;;;9.67;52.52
36664;BME280;53333;51.976;20.144;2023-03-14T06:07:19;98152.44;;;9.68;52.43
36664;BME280;53333;51.976;20.144;2023-03-14T06:09:52;98143.97;;;9.74;52.24
36664;BME280;53333;51.976;20.144;2023-03-14T06:12:27;98134.41;;;9.82;52.13
36664;BME280;53333;51.976;20.144;2023-03-14T06:15:01;98147.41;;;9.98;51.89
36664;BME280;53333;51.976;20.144;2023-03-14T06:17:35;98091.91;;;10.15;51.45
36664;BME280;53333;51.976;20.144;2023-03-14T06:20:13;98121.38;;;10.36;51.18
36664;BME280;53333;51.976;20.144;2023-03-14T06:22:46;98114.41;;;10.56;50.90
36664;BME280;53333;51.976;20.144;2023-03-14T06:25:20;98116.19;;;10.78;50.53
36664;BME280;53333;51.976;20.144;2023-03-14T06:27:54;98134.56;;;11.04;50.04
36664;BME280;53333;51.976;20.144;2023-03-14T06:30:27;98134.09;;;11.31;49.64
36664;BME280;53333;51.976;20.144;2023-03-14T06:33:01;98148.97;;;11.66;49.59
36664;BME280;53333;51.976;20.144;2023-03-14T06:35:34;98141.22;;;11.84;48.99
36664;BME280;53333;51.976;20.144;2023-03-14T06:38:07;98143.38;;;12.11;48.43
36664;BME280;53333;51.976;20.144;2023-03-14T06:40:41;98145.75;;;12.35;47.94
36664;BME280;53333;51.976;20.144;2023-03-14T06:43:22;98152.16;;;12.54;47.43
36664;BME280;53333;51.976;20.144;2023-03-14T06:45:56;98154.59;;;12.67;47.22
36664;BME280;53333;51.976;20.144;2023-03-14T06:48:29;98161.78;;;12.76;47.23
36664;BME280;53333;51.976;20.144;2023-03-14T06:51:03;98150.81;;;12.89;46.88
36664;BME280;53333;51.976;20.144;2023-03-14T06:53:36;98150.31;;;13.15;47.07
36664;BME280;53333;51.976;20.144;2023-03-14T06:56:10;98158.50;;;13.23;46.59
36664;BME280;53333;51.976;20.144;2023-03-14T06:58:44;98159.38;;;13.33;46.48
36664;BME280;53333;51.976;20.144;2023-03-14T07:01:24;98150.50;;;13.42;46.04
36664;BME280;53333;51.976;20.144;2023-03-14T07:04:00;98164.88;;;13.51;45.95
36664;BME280;53333;51.976;20.144;2023-03-14T07:06:34;98169.53;;;13.59;45.79
36664;BME280;53333;51.976;20.144;2023-03-14T07:09:09;98157.25;;;13.66;45.44
36664;BME280;53333;51.976;20.144;2023-03-14T07:11:46;98164.72;;;13.72;45.49
36664;BME280;53333;51.976;20.144;2023-03-14T07:14:22;98151.16;;;13.84;45.20
36664;BME280;53333;51.976;20.144;2023-03-14T07:16:55;98150.97;;;14.05;45.20
36664;BME280;53333;51.976;20.144;2023-03-14T07:19:30;98142.94;;;14.32;44.64
36664;BME280;53333;51.976;20.144;2023-03-14T07:22:04;98134.97;;;14.50;44.20
36664;BME280;53333;51.976;20.144;2023-03-14T07:24:37;98138.03;;;14.65;43.77
36664;BME280;53333;51.976;20.144;2023-03-14T07:27:13;98133.03;;;14.70;43.73
36664;BME280;53333;51.976;20.144;2023-03-14T07:29:47;98127.81;;;14.69;43.58
36664;BME280;53333;51.976;20.144;2023-03-14T07:32:21;98143.56;;;14.64;43.64
36664;BME280;53333;51.976;20.144;2023-03-14T07:34:54;98134.69;;;14.53;43.75
36664;BME280;53333;51.976;20.144;2023-03-14T07:37:27;98142.22;;;14.40;44.08
36664;BME280;53333;51.976;20.144;2023-03-14T07:40:01;98137.88;;;14.29;44.14
36664;BME280;53333;51.976;20.144;2023-03-14T07:42:37;98134.53;;;14.17;44.18
36664;BME280;53333;51.976;20.144;2023-03-14T07:45:20;98122.84;;;14.09;44.19
36664;BME280;53333;51.976;20.144;2023-03-14T07:47:55;98138.53;;;14.04;44.17
36664;BME280;53333;51.976;20.144;2023-03-14T07:50:29;98150.28;;;14.03;44.10
36664;BME280;53333;51.976;20.144;2023-03-14T07:53:02;98146.72;;;14.02;44.13
36664;BME280;53333;51.976;20.144;2023-03-14T07:55:35;98164.94;;;14.08;44.10
36664;BME280;53333;51.976;20.144;2023-03-14T07:58:08;98173.09;;;14.16;43.89
36664;BME280;53333;51.976;20.144;2023-03-14T08:00:46;98168.41;;;14.28;43.96
36664;BME280;53333;51.976;20.144;2023-03-14T08:03:19;98168.34;;;14.48;43.35
36664;BME280;53333;51.976;20.144;2023-03-14T08:05:52;98171.53;;;14.71;43.28
36664;BME280;53333;51.976;20.144;2023-03-14T08:08:25;98169.88;;;15.06;42.50
36664;BME280;53333;51.976;20.144;2023-03-14T08:11:02;98179.84;;;15.77;41.54
36664;BME280;53333;51.976;20.144;2023-03-14T08:13:37;98170.00;;;16.73;39.99
36664;BME280;53333;51.976;20.144;2023-03-14T08:16:12;98161.81;;;17.67;38.47
36664;BME280;53333;51.976;20.144;2023-03-14T08:18:45;98174.06;;;18.43;37.43
36664;BME280;53333;51.976;20.144;2023-03-14T08:21:19;98169.75;;;18.74;36.73
36664;BME280;53333;51.976;20.144;2023-03-14T08:23:52;98171.09;;;18.86;36.03
36664;BME280;53333;51.976;20.144;2023-03-14T08:26:25;98171.00;;;19.34;35.67
36664;BME280;53333;51.976;20.144;2023-03-14T08:28:58;98165.53;;;19.65;35.08
36664;BME280;53333;51.976;20.144;2023-03-14T08:31:32;98178.78;;;19.83;34.47
36664;BME280;53333;51.976;20.144;2023-03-14T08:34:05;98182.66;;;19.57;34.87
36664;BME280;53333;51.976;20.144;2023-03-14T08:36:38;98174.44;;;19.28;35.11
36664;BME280;53333;51.976;20.144;2023-03-14T08:39:12;98169.88;;;18.88;35.46
36664;BME280;53333;51.976;20.144;2023-03-14T08:41:45;98162.94;;;18.46;35.98
36664;BME280;53333;51.976;20.144;2023-03-14T08:44:18;98176.16;;;18.08;36.76
36664;BME280;53333;51.976;20.144;2023-03-14T08:46:52;98181.53;;;17.75;37.60
36664;BME280;53333;51.976;20.144;2023-03-14T08:49:25;98172.22;;;17.29;38.44
36664;BME280;53333;51.976;20.144;2023-03-14T08:51:58;98172.09;;;16.87;38.74
36664;BME280;53333;51.976;20.144;2023-03-14T08:54:31;98165.06;;;16.60;39.04
36664;BME280;53333;51.976;20.144;2023-03-14T08:57:04;98170.06;;;16.47;39.43
36664;BME280;53333;51.976;20.144;2023-03-14T08:59:38;98171.72;;;16.48;38.96
36664;BME280;53333;51.976;20.144;2023-03-14T09:02:12;98154.50;;;16.75;38.80
36664;BME280;53333;51.976;20.144;2023-03-14T09:04:46;98157.41;;;17.57;37.73
36664;BME280;53333;51.976;20.144;2023-03-14T09:07:19;98146.81;;;17.97;37.08
36664;BME280;53333;51.976;20.144;2023-03-14T09:09:52;98133.59;;;18.19;36.79
36664;BME280;53333;51.976;20.144;2023-03-14T09:12:28;98148.91;;;18.34;36.18
36664;BME280;53333;51.976;20.144;2023-03-14T09:15:01;98144.50;;;18.50;36.26
36664;BME280;53333;51.976;20.144;2023-03-14T09:17:36;98153.91;;;19.33;35.08
36664;BME280;53333;51.976;20.144;2023-03-14T09:20:10;98143.56;;;19.37;35.13
36664;BME280;53333;51.976;20.144;2023-03-14T09:22:44;98150.31;;;19.18;35.33
36664;BME280;53333;51.976;20.144;2023-03-14T09:25:17;98155.03;;;18.76;35.61
36664;BME280;53333;51.976;20.144;2023-03-14T09:27:50;98152.16;;;18.38;36.03
36664;BME280;53333;51.976;20.144;2023-03-14T09:30:23;98145.13;;;17.96;36.71
36664;BME280;53333;51.976;20.144;2023-03-14T09:32:57;98144.94;;;17.56;36.95
36664;BME280;53333;51.976;20.144;2023-03-14T09:35:33;98144.03;;;17.23;37.53
36664;BME280;53333;51.976;20.144;2023-03-14T09:38:06;98143.34;;;16.96;37.76
36664;BME280;53333;51.976;20.144;2023-03-14T09:40:40;98125.59;;;16.85;37.97
36664;BME280;53333;51.976;20.144;2023-03-14T09:43:14;98146.22;;;17.11;37.61
36664;BME280;53333;51.976;20.144;2023-03-14T09:45:48;98146.97;;;17.79;37.24
36664;BME280;53333;51.976;20.144;2023-03-14T09:48:27;98129.88;;;18.20;36.57
36664;BME280;53333;51.976;20.144;2023-03-14T09:51:05;98156.44;;;18.64;35.77
36664;BME280;53333;51.976;20.144;2023-03-14T09:53:40;98133.09;;;18.71;35.74
36664;BME280;53333;51.976;20.144;2023-03-14T09:56:17;98126.91;;;18.54;36.03
36664;BME280;53333;51.976;20.144;2023-03-14T09:58:54;98140.94;;;18.97;35.48
36664;BME280;53333;51.976;20.144;2023-03-14T10:01:30;98130.78;;;19.77;34.07
36664;BME280;53333;51.976;20.144;2023-03-14T10:04:10;98138.94;;;21.11;32.67
36664;BME280;53333;51.976;20.144;2023-03-14T10:06:45;98156.75;;;21.35;32.13
36664;BME280;53333;51.976;20.144;2023-03-14T10:09:20;98146.56;;;20.86;32.61
36664;BME280;53333;51.976;20.144;2023-03-14T10:11:57;98137.66;;;20.32;33.14
36664;BME280;53333;51.976;20.144;2023-03-14T10:14:33;98145.16;;;19.77;34.22
36664;BME280;53333;51.976;20.144;2023-03-14T10:17:08;98128.53;;;19.34;34.51
36664;BME280;53333;51.976;20.144;2023-03-14T10:19:54;98121.81;;;19.53;34.36
36664;BME280;53333;51.976;20.144;2023-03-14T10:22:30;98124.84;;;19.27;34.70
36664;BME280;53333;51.976;20.144;2023-03-14T10:25:05;98138.72;;;19.01;35.17
36664;BME280;53333;51.976;20.144;2023-03-14T10:27:41;98118.91;;;18.69;35.58
36664;BME280;53333;51.976;20.144;2023-03-14T10:30:30;98128.66;;;18.39;35.81
36664;BME280;53333;51.976;20.144;2023-03-14T10:33:10;98126.88;;;17.98;36.36
36664;BME280;53333;51.976;20.144;2023-03-14T10:35:45;98144.59;;;17.68;36.80
36664;BME280;53333;51.976;20.144;2023-03-14T10:38:19;98105.44;;;17.39;37.26
36664;BME280;53333;51.976;20.144;2023-03-14T10:40:53;98110.19;;;17.20;38.00
36664;BME280;53333;51.976;20.144;2023-03-14T10:43:31;98114.00;;;17.01;38.07
36664;BME280;53333;51.976;20.144;2023-03-14T10:46:07;98112.91;;;16.78;38.52
36664;BME280;53333;51.976;20.144;2023-03-14T10:49:04;98131.47;;;16.46;39.10
36664;BME280;53333;51.976;20.144;2023-03-14T10:51:39;98133.72;;;16.25;39.47
36664;BME280;53333;51.976;20.144;2023-03-14T10:54:14;98130.72;;;16.02;40.10
36664;BME280;53333;51.976;20.144;2023-03-14T10:56:58;98140.41;;;15.86;40.27
36664;BME280;53333;51.976;20.144;2023-03-14T10:59:35;98128.63;;;15.69;40.86
36664;BME280;53333;51.976;20.144;2023-03-14T11:02:20;98148.31;;;15.52;41.17
36664;BME280;53333;51.976;20.144;2023-03-14T11:05:07;98146.84;;;15.39;41.51
36664;BME280;53333;51.976;20.144;2023-03-14T11:07:45;98138.72;;;15.31;41.79
36664;BME280;53333;51.976;20.144;2023-03-14T11:10:20;98147.81;;;15.30;42.10
36664;BME280;53333;51.976;20.144;2023-03-14T11:13:04;98137.50;;;15.25;42.36
36664;BME280;53333;51.976;20.144;2023-03-14T11:15:50;98147.84;;;15.20;42.33
36664;BME280;53333;51.976;20.144;2023-03-14T11:21:37;98143.41;;;15.11;42.68
36664;BME280;53333;51.976;20.144;2023-03-14T11:24:36;98155.75;;;15.04;42.97
36664;BME280;53333;51.976;20.144;2023-03-14T11:27:17;98154.84;;;14.95;43.10
36664;BME280;53333;51.976;20.144;2023-03-14T11:29:55;98156.13;;;14.91;43.32
36664;BME280;53333;51.976;20.144;2023-03-14T11:32:39;98148.50;;;14.86;43.59
36664;BME280;53333;51.976;20.144;2023-03-14T11:35:17;98151.50;;;14.83;43.70
36664;BME280;53333;51.976;20.144;2023-03-14T11:38:01;98148.97;;;14.82;43.85
36664;BME280;53333;51.976;20.144;2023-03-14T11:40:38;98149.53;;;14.85;43.82
36664;BME280;53333;51.976;20.144;2023-03-14T11:43:15;98143.53;;;14.92;43.85
36664;BME280;53333;51.976;20.144;2023-03-14T11:45:51;98141.25;;;14.97;44.09
36664;BME280;53333;51.976;20.144;2023-03-14T11:48:31;98140.94;;;15.00;43.99
36664;BME280;53333;51.976;20.144;2023-03-14T11:51:12;98153.69;;;14.98;44.18
36664;BME280;53333;51.976;20.144;2023-03-14T11:53:57;98158.38;;;14.96;44.19
36664;BME280;53333;51.976;20.144;2023-03-14T11:56:37;98178.47;;;14.92;44.53
36664;BME280;53333;51.976;20.144;2023-03-14T11:59:16;98177.31;;;14.94;43.90
36664;BME280;53333;51.976;20.144;2023-03-14T12:01:57;98171.19;;;14.74;44.40
36664;BME280;53333;51.976;20.144;2023-03-14T12:04:42;98171.25;;;14.64;44.22
36664;BME280;53333;51.976;20.144;2023-03-14T12:07:21;98164.09;;;14.55;44.65
36664;BME280;53333;51.976;20.144;2023-03-14T12:09:57;98177.09;;;14.50;44.65
36664;BME280;53333;51.976;20.144;2023-03-14T12:12:32;98166.25;;;14.42;44.86
36664;BME280;53333;51.976;20.144;2023-03-14T12:15:18;98169.22;;;14.39;44.98
36664;BME280;53333;51.976;20.144;2023-03-14T12:17:54;98171.78;;;14.30;45.32
36664;BME280;53333;51.976;20.144;2023-03-14T12:20:27;98171.69;;;14.22;45.98
36664;BME280;53333;51.976;20.144;2023-03-14T12:23:03;98179.63;;;14.14;46.37
36664;BME280;53333;51.976;20.144;2023-03-14T12:25:37;98172.56;;;14.03;46.76
36664;BME280;53333;51.976;20.144;2023-03-14T12:28:30;98168.75;;;13.96;47.14
36664;BME280;53333;51.976;20.144;2023-03-14T12:34:30;98181.38;;;13.76;47.99
36664;BME280;53333;51.976;20.144;2023-03-14T12:37:14;98184.34;;;13.73;48.68
36664;BME280;53333;51.976;20.144;2023-03-14T12:40:00;98183.50;;;13.72;49.42
36664;BME280;53333;51.976;20.144;2023-03-14T12:42:43;98182.94;;;13.69;49.92
36664;BME280;53333;51.976;20.144;2023-03-14T12:45:27;98183.66;;;13.71;49.98
36664;BME280;53333;51.976;20.144;2023-03-14T12:48:06;98177.69;;;13.67;50.34
36664;BME280;53333;51.976;20.144;2023-03-14T12:50:43;98182.94;;;13.59;51.00
36664;BME280;53333;51.976;20.144;2023-03-14T12:56:50;98174.34;;;13.36;51.91
36664;BME280;53333;51.976;20.144;2023-03-14T12:59:30;98180.78;;;13.23;52.78
36664;BME280;53333;51.976;20.144;2023-03-14T13:02:22;98184.84;;;13.18;52.80
36664;BME280;53333;51.976;20.144;2023-03-14T13:05:04;98181.19;;;13.09;53.71
36664;BME280;53333;51.976;20.144;2023-03-14T13:08:04;98182.31;;;13.06;53.99
36664;BME280;53333;51.976;20.144;2023-03-14T13:10:41;98181.31;;;12.98;54.63
36664;BME280;53333;51.976;20.144;2023-03-14T13:13:20;98176.50;;;12.92;55.23
36664;BME280;53333;51.976;20.144;2023-03-14T13:15:55;98167.03;;;12.87;55.61
36664;BME280;53333;51.976;20.144;2023-03-14T13:18:34;98159.00;;;12.87;56.25
36664;BME280;53333;51.976;20.144;2023-03-14T13:21:12;98157.31;;;12.86;56.40
36664;BME280;53333;51.976;20.144;2023-03-14T13:23:59;98144.06;;;12.85;56.27
36664;BME280;53333;51.976;20.144;2023-03-14T13:26:34;98136.28;;;12.82;56.59
36664;BME280;53333;51.976;20.144;2023-03-14T13:29:09;98128.41;;;12.80;56.89
36664;BME280;53333;51.976;20.144;2023-03-14T13:31:44;98130.22;;;12.80;56.99
36664;BME280;53333;51.976;20.144;2023-03-14T13:34:20;98135.88;;;12.77;57.30
36664;BME280;53333;51.976;20.144;2023-03-14T13:36:53;98128.66;;;12.77;57.38
36664;BME280;53333;51.976;20.144;2023-03-14T13:39:28;98124.16;;;12.78;57.58
36664;BME280;53333;51.976;20.144;2023-03-14T13:42:02;98117.13;;;12.77;57.64
36664;BME280;53333;51.976;20.144;2023-03-14T13:44:37;98128.25;;;12.72;57.64
36664;BME280;53333;51.976;20.144;2023-03-14T13:47:14;98133.31;;;12.65;57.81
36664;BME280;53333;51.976;20.144;2023-03-14T13:49:50;98131.03;;;12.61;58.04
36664;BME280;53333;51.976;20.144;2023-03-14T13:52:29;98143.56;;;12.60;58.42
36664;BME280;53333;51.976;20.144;2023-03-14T13:55:04;98151.59;;;12.60;58.56
36664;BME280;53333;51.976;20.144;2023-03-14T13:57:45;98140.75;;;12.62;58.65
36664;BME280;53333;51.976;20.144;2023-03-14T14:00:21;98156.81;;;12.62;58.96
36664;BME280;53333;51.976;20.144;2023-03-14T14:02:57;98154.00;;;12.63;58.81